KLNC

Lancaster Regional Airport

Lancaster, Texas, USA
METAR KLNC 190555Z AUTO 26007KT 10SM -RA OVC080 16/14 A2974 RMK AO2 T01630141 10180 20163 401810036
Observed Flight Rules
Jan-19 @ 05:55 UTC (22 minutes ago) Visual Flight Rules
Wind Visibility Clouds Conditions
260° at 7 knots 10 miles
  • Overcast at 8,000' AGL
  • Light Rain
Temperatures Readings
Current 16°C / 61°F
Dewpoint 14°C / 57°F
Humidity 88%
Altimeter 29.74" Hg
Pressure 1007.12 hPa
Elevation 153
METAR KLNC 190555Z AUTO 26007KT 10SM -RA OVC080 16/14 A2974 RMK AO2 T01630141 10180 20163 401810036
Observed Flight Rules
Jan-19 @ 05:55 UTC
(22 minutes ago)
VFR
Wind Visibility
260° at 7 knots 10 miles
Clouds
  • Overcast at 8,000' AGL
Conditions
  • Light Rain
Temperature Dewpoint
16°C / 61°F 14°C / 57°F
Humidity Altimeter Pressure
88% 29.74" Hg 1007.12 hPa